sensor_id;sensor_type;location;lat;lon;timestamp;P1;durP1;ratioP1;P2;durP2;ratioP2
39176;SDS011;24904;52.208;21.192;2023-04-03T00:04:41;6.50;;;2.10;;
39176;SDS011;24904;52.208;21.192;2023-04-03T00:09:46;2.50;;;1.40;;
39176;SDS011;24904;52.208;21.192;2023-04-03T00:14:51;3.40;;;1.50;;
39176;SDS011;24904;52.208;21.192;2023-04-03T00:19:56;5.20;;;1.60;;
39176;SDS011;24904;52.208;21.192;2023-04-03T00:25:01;3.40;;;1.80;;
39176;SDS011;24904;52.208;21.192;2023-04-03T00:30:08;2.80;;;1.40;;
39176;SDS011;24904;52.208;21.192;2023-04-03T00:40:21;2.40;;;1.30;;
39176;SDS011;24904;52.208;21.192;2023-04-03T00:45:31;4.70;;;1.60;;
39176;SDS011;24904;52.208;21.192;2023-04-03T00:50:40;3.60;;;1.40;;
39176;SDS011;24904;52.208;21.192;2023-04-03T00:55:47;4.20;;;1.50;;
39176;SDS011;24904;52.208;21.192;2023-04-03T01:00:55;5.10;;;1.30;;
39176;SDS011;24904;52.208;21.192;2023-04-03T01:06:04;7.10;;;1.80;;
39176;SDS011;24904;52.208;21.192;2023-04-03T01:11:09;4.90;;;1.50;;
39176;SDS011;24904;52.208;21.192;2023-04-03T01:16:15;6.00;;;1.50;;
39176;SDS011;24904;52.208;21.192;2023-04-03T01:26:57;3.00;;;1.40;;
39176;SDS011;24904;52.208;21.192;2023-04-03T01:32:04;6.30;;;1.80;;
39176;SDS011;24904;52.208;21.192;2023-04-03T01:37:10;3.70;;;1.60;;
39176;SDS011;24904;52.208;21.192;2023-04-03T01:42:15;6.80;;;1.60;;
39176;SDS011;24904;52.208;21.192;2023-04-03T01:47:20;3.00;;;1.50;;
39176;SDS011;24904;52.208;21.192;2023-04-03T01:52:26;5.20;;;1.50;;
39176;SDS011;24904;52.208;21.192;2023-04-03T01:57:32;3.40;;;1.50;;
39176;SDS011;24904;52.208;21.192;2023-04-03T02:02:37;2.30;;;1.30;;
39176;SDS011;24904;52.208;21.192;2023-04-03T02:07:43;5.60;;;1.20;;
39176;SDS011;24904;52.208;21.192;2023-04-03T02:12:48;4.10;;;1.20;;
39176;SDS011;24904;52.208;21.192;2023-04-03T02:17:54;2.80;;;1.30;;
39176;SDS011;24904;52.208;21.192;2023-04-03T02:22:59;4.00;;;1.30;;
39176;SDS011;24904;52.208;21.192;2023-04-03T02:28:05;4.90;;;1.40;;
39176;SDS011;24904;52.208;21.192;2023-04-03T02:33:10;4.10;;;1.20;;
39176;SDS011;24904;52.208;21.192;2023-04-03T02:38:15;3.40;;;1.20;;
39176;SDS011;24904;52.208;21.192;2023-04-03T02:43:21;2.70;;;1.10;;
39176;SDS011;24904;52.208;21.192;2023-04-03T02:51:39;4.30;;;1.20;;
39176;SDS011;24904;52.208;21.192;2023-04-03T02:56:43;4.40;;;1.70;;
39176;SDS011;24904;52.208;21.192;2023-04-03T03:01:46;1.50;;;0.90;;
39176;SDS011;24904;52.208;21.192;2023-04-03T03:06:49;3.60;;;1.10;;
39176;SDS011;24904;52.208;21.192;2023-04-03T03:11:53;2.50;;;1.20;;
39176;SDS011;24904;52.208;21.192;2023-04-03T03:16:57;3.70;;;1.40;;
39176;SDS011;24904;52.208;21.192;2023-04-03T03:22:01;3.10;;;1.50;;
39176;SDS011;24904;52.208;21.192;2023-04-03T03:27:04;4.70;;;1.80;;
39176;SDS011;24904;52.208;21.192;2023-04-03T03:32:07;6.30;;;2.10;;
39176;SDS011;24904;52.208;21.192;2023-04-03T03:37:10;3.30;;;1.10;;
39176;SDS011;24904;52.208;21.192;2023-04-03T03:42:13;4.20;;;1.50;;
39176;SDS011;24904;52.208;21.192;2023-04-03T03:47:16;3.10;;;1.60;;
39176;SDS011;24904;52.208;21.192;2023-04-03T03:52:20;3.10;;;1.60;;
39176;SDS011;24904;52.208;21.192;2023-04-03T03:57:23;3.70;;;1.20;;
39176;SDS011;24904;52.208;21.192;2023-04-03T04:02:28;3.20;;;1.40;;
39176;SDS011;24904;52.208;21.192;2023-04-03T04:07:32;2.10;;;1.20;;
39176;SDS011;24904;52.208;21.192;2023-04-03T04:12:35;3.40;;;1.30;;
39176;SDS011;24904;52.208;21.192;2023-04-03T04:17:39;9.10;;;1.20;;
39176;SDS011;24904;52.208;21.192;2023-04-03T04:22:44;2.70;;;1.30;;
39176;SDS011;24904;52.208;21.192;2023-04-03T04:27:48;4.20;;;1.50;;
39176;SDS011;24904;52.208;21.192;2023-04-03T04:32:51;6.40;;;1.50;;
39176;SDS011;24904;52.208;21.192;2023-04-03T04:37:55;2.30;;;1.20;;
39176;SDS011;24904;52.208;21.192;2023-04-03T04:42:58;5.50;;;1.70;;
39176;SDS011;24904;52.208;21.192;2023-04-03T04:48:01;3.80;;;1.40;;
39176;SDS011;24904;52.208;21.192;2023-04-03T04:53:05;1.90;;;1.00;;
39176;SDS011;24904;52.208;21.192;2023-04-03T04:58:08;4.10;;;1.60;;
39176;SDS011;24904;52.208;21.192;2023-04-03T05:03:11;3.10;;;1.50;;
39176;SDS011;24904;52.208;21.192;2023-04-03T05:08:15;2.50;;;1.30;;
39176;SDS011;24904;52.208;21.192;2023-04-03T05:13:18;5.00;;;1.90;;
39176;SDS011;24904;52.208;21.192;2023-04-03T05:18:22;4.50;;;1.60;;
39176;SDS011;24904;52.208;21.192;2023-04-03T05:23:27;3.90;;;2.00;;
39176;SDS011;24904;52.208;21.192;2023-04-03T05:28:32;5.30;;;1.60;;
39176;SDS011;24904;52.208;21.192;2023-04-03T05:33:35;3.00;;;1.60;;
39176;SDS011;24904;52.208;21.192;2023-04-03T05:46:45;4.20;;;1.70;;
39176;SDS011;24904;52.208;21.192;2023-04-03T05:51:50;5.70;;;2.10;;
39176;SDS011;24904;52.208;21.192;2023-04-03T05:56:59;4.30;;;1.60;;
39176;SDS011;24904;52.208;21.192;2023-04-03T06:02:05;2.90;;;1.30;;
39176;SDS011;24904;52.208;21.192;2023-04-03T06:07:13;2.90;;;1.30;;
39176;SDS011;24904;52.208;21.192;2023-04-03T06:12:21;4.90;;;2.40;;
39176;SDS011;24904;52.208;21.192;2023-04-03T06:17:27;5.60;;;1.60;;
39176;SDS011;24904;52.208;21.192;2023-04-03T06:22:32;4.10;;;1.50;;
39176;SDS011;24904;52.208;21.192;2023-04-03T06:27:37;3.70;;;1.40;;
39176;SDS011;24904;52.208;21.192;2023-04-03T06:32:42;3.10;;;1.50;;
39176;SDS011;24904;52.208;21.192;2023-04-03T06:37:47;4.10;;;1.50;;
39176;SDS011;24904;52.208;21.192;2023-04-03T06:42:52;3.90;;;2.10;;
39176;SDS011;24904;52.208;21.192;2023-04-03T06:47:57;5.10;;;2.60;;
39176;SDS011;24904;52.208;21.192;2023-04-03T06:53:03;5.20;;;1.50;;
39176;SDS011;24904;52.208;21.192;2023-04-03T06:58:08;6.10;;;1.30;;
39176;SDS011;24904;52.208;21.192;2023-04-03T07:03:13;8.80;;;1.90;;
39176;SDS011;24904;52.208;21.192;2023-04-03T07:08:19;6.60;;;1.50;;
39176;SDS011;24904;52.208;21.192;2023-04-03T07:13:27;4.40;;;2.10;;
39176;SDS011;24904;52.208;21.192;2023-04-03T07:18:32;6.20;;;1.50;;
39176;SDS011;24904;52.208;21.192;2023-04-03T07:23:38;5.30;;;1.90;;
39176;SDS011;24904;52.208;21.192;2023-04-03T07:28:43;4.00;;;1.60;;
39176;SDS011;24904;52.208;21.192;2023-04-03T07:33:50;4.40;;;1.70;;
39176;SDS011;24904;52.208;21.192;2023-04-03T07:38:55;4.90;;;1.70;;
39176;SDS011;24904;52.208;21.192;2023-04-03T07:44:00;3.90;;;1.60;;
39176;SDS011;24904;52.208;21.192;2023-04-03T07:49:06;3.10;;;1.20;;
39176;SDS011;24904;52.208;21.192;2023-04-03T07:54:11;3.80;;;1.70;;
39176;SDS011;24904;52.208;21.192;2023-04-03T07:59:16;2.40;;;1.20;;
39176;SDS011;24904;52.208;21.192;2023-04-03T08:04:21;2.20;;;1.20;;
39176;SDS011;24904;52.208;21.192;2023-04-03T08:09:27;2.50;;;1.20;;
39176;SDS011;24904;52.208;21.192;2023-04-03T08:14:33;2.70;;;1.10;;
39176;SDS011;24904;52.208;21.192;2023-04-03T08:19:38;2.30;;;1.20;;
39176;SDS011;24904;52.208;21.192;2023-04-03T08:24:44;2.10;;;1.10;;
39176;SDS011;24904;52.208;21.192;2023-04-03T08:29:49;2.70;;;1.50;;
39176;SDS011;24904;52.208;21.192;2023-04-03T08:34:54;5.20;;;1.50;;
39176;SDS011;24904;52.208;21.192;2023-04-03T08:45:49;3.40;;;1.20;;
39176;SDS011;24904;52.208;21.192;2023-04-03T08:50:57;2.40;;;1.20;;
39176;SDS011;24904;52.208;21.192;2023-04-03T09:04:15;3.90;;;1.50;;
39176;SDS011;24904;52.208;21.192;2023-04-03T09:09:24;3.90;;;1.40;;
39176;SDS011;24904;52.208;21.192;2023-04-03T09:14:39;3.60;;;1.30;;
39176;SDS011;24904;52.208;21.192;2023-04-03T09:19:51;4.50;;;1.80;;
39176;SDS011;24904;52.208;21.192;2023-04-03T09:25:03;4.40;;;1.50;;
39176;SDS011;24904;52.208;21.192;2023-04-03T09:30:14;2.40;;;1.10;;
39176;SDS011;24904;52.208;21.192;2023-04-03T09:35:22;1.70;;;1.20;;
39176;SDS011;24904;52.208;21.192;2023-04-03T09:40:31;4.50;;;1.30;;
39176;SDS011;24904;52.208;21.192;2023-04-03T09:45:41;3.90;;;1.30;;
39176;SDS011;24904;52.208;21.192;2023-04-03T09:51:00;3.20;;;1.10;;
39176;SDS011;24904;52.208;21.192;2023-04-03T09:56:18;4.10;;;1.30;;
39176;SDS011;24904;52.208;21.192;2023-04-03T10:01:28;3.70;;;1.30;;
39176;SDS011;24904;52.208;21.192;2023-04-03T10:06:36;2.70;;;1.20;;
39176;SDS011;24904;52.208;21.192;2023-04-03T10:11:57;2.40;;;1.30;;
39176;SDS011;24904;52.208;21.192;2023-04-03T10:17:12;2.60;;;1.10;;
39176;SDS011;24904;52.208;21.192;2023-04-03T10:22:24;2.50;;;1.20;;
39176;SDS011;24904;52.208;21.192;2023-04-03T10:27:44;4.30;;;1.20;;
39176;SDS011;24904;52.208;21.192;2023-04-03T10:33:00;5.40;;;1.40;;
39176;SDS011;24904;52.208;21.192;2023-04-03T10:38:22;2.50;;;1.40;;
39176;SDS011;24904;52.208;21.192;2023-04-03T10:43:36;5.00;;;1.50;;
39176;SDS011;24904;52.208;21.192;2023-04-03T10:48:53;2.80;;;1.00;;
39176;SDS011;24904;52.208;21.192;2023-04-03T10:54:08;3.00;;;1.30;;
39176;SDS011;24904;52.208;21.192;2023-04-03T10:59:21;1.40;;;0.80;;
39176;SDS011;24904;52.208;21.192;2023-04-03T11:04:31;4.30;;;0.80;;
39176;SDS011;24904;52.208;21.192;2023-04-03T11:09:41;1.80;;;1.10;;
39176;SDS011;24904;52.208;21.192;2023-04-03T11:14:51;2.20;;;1.20;;
39176;SDS011;24904;52.208;21.192;2023-04-03T11:20:01;3.10;;;1.50;;
39176;SDS011;24904;52.208;21.192;2023-04-03T11:25:18;2.40;;;1.20;;
39176;SDS011;24904;52.208;21.192;2023-04-03T11:30:27;2.10;;;1.00;;
39176;SDS011;24904;52.208;21.192;2023-04-03T11:35:36;2.10;;;1.10;;
39176;SDS011;24904;52.208;21.192;2023-04-03T11:40:45;1.40;;;0.90;;
39176;SDS011;24904;52.208;21.192;2023-04-03T11:45:53;1.80;;;0.90;;
39176;SDS011;24904;52.208;21.192;2023-04-03T11:51:02;5.20;;;1.30;;
39176;SDS011;24904;52.208;21.192;2023-04-03T11:56:44;2.20;;;1.10;;
39176;SDS011;24904;52.208;21.192;2023-04-03T12:01:49;5.70;;;1.20;;
39176;SDS011;24904;52.208;21.192;2023-04-03T12:17:42;2.70;;;1.30;;
39176;SDS011;24904;52.208;21.192;2023-04-03T12:28:25;2.50;;;1.00;;
39176;SDS011;24904;52.208;21.192;2023-04-03T12:33:33;2.80;;;1.00;;
39176;SDS011;24904;52.208;21.192;2023-04-03T12:39:11;2.80;;;0.90;;
39176;SDS011;24904;52.208;21.192;2023-04-03T12:44:37;4.10;;;0.90;;
39176;SDS011;24904;52.208;21.192;2023-04-03T12:49:48;3.30;;;1.00;;
39176;SDS011;24904;52.208;21.192;2023-04-03T12:54:55;2.70;;;0.90;;
39176;SDS011;24904;52.208;21.192;2023-04-03T13:00:01;2.40;;;0.80;;
39176;SDS011;24904;52.208;21.192;2023-04-03T13:05:24;9.60;;;1.00;;
39176;SDS011;24904;52.208;21.192;2023-04-03T13:10:30;4.10;;;1.30;;
39176;SDS011;24904;52.208;21.192;2023-04-03T13:15:46;3.70;;;1.50;;
39176;SDS011;24904;52.208;21.192;2023-04-03T13:20:53;3.50;;;1.30;;
39176;SDS011;24904;52.208;21.192;2023-04-03T13:26:00;2.40;;;0.80;;
39176;SDS011;24904;52.208;21.192;2023-04-03T13:31:08;2.80;;;1.30;;
39176;SDS011;24904;52.208;21.192;2023-04-03T13:36:26;2.70;;;1.10;;
39176;SDS011;24904;52.208;21.192;2023-04-03T13:41:34;4.80;;;1.20;;
39176;SDS011;24904;52.208;21.192;2023-04-03T13:46:40;3.40;;;0.90;;
39176;SDS011;24904;52.208;21.192;2023-04-03T13:51:46;3.80;;;0.90;;
39176;SDS011;24904;52.208;21.192;2023-04-03T13:56:54;2.20;;;0.90;;
39176;SDS011;24904;52.208;21.192;2023-04-03T14:02:12;2.80;;;0.90;;
39176;SDS011;24904;52.208;21.192;2023-04-03T14:07:21;1.90;;;0.90;;
39176;SDS011;24904;52.208;21.192;2023-04-03T14:20:40;3.60;;;1.30;;
39176;SDS011;24904;52.208;21.192;2023-04-03T14:25:45;2.40;;;1.00;;
39176;SDS011;24904;52.208;21.192;2023-04-03T14:30:50;5.80;;;1.40;;
39176;SDS011;24904;52.208;21.192;2023-04-03T14:35:55;2.80;;;1.20;;
39176;SDS011;24904;52.208;21.192;2023-04-03T14:41:00;2.60;;;0.90;;
39176;SDS011;24904;52.208;21.192;2023-04-03T14:46:05;3.80;;;1.00;;
39176;SDS011;24904;52.208;21.192;2023-04-03T14:51:17;2.80;;;1.40;;
39176;SDS011;24904;52.208;21.192;2023-04-03T14:56:23;5.20;;;1.20;;
39176;SDS011;24904;52.208;21.192;2023-04-03T15:01:31;4.00;;;1.20;;
39176;SDS011;24904;52.208;21.192;2023-04-03T15:06:36;1.80;;;0.90;;
39176;SDS011;24904;52.208;21.192;2023-04-03T15:11:41;6.30;;;1.30;;
39176;SDS011;24904;52.208;21.192;2023-04-03T15:16:46;4.90;;;1.00;;
39176;SDS011;24904;52.208;21.192;2023-04-03T15:21:51;2.40;;;1.20;;
39176;SDS011;24904;52.208;21.192;2023-04-03T15:26:56;5.00;;;1.60;;
39176;SDS011;24904;52.208;21.192;2023-04-03T15:32:03;5.50;;;1.20;;
39176;SDS011;24904;52.208;21.192;2023-04-03T15:37:08;2.60;;;1.10;;
39176;SDS011;24904;52.208;21.192;2023-04-03T15:42:13;3.80;;;1.20;;
39176;SDS011;24904;52.208;21.192;2023-04-03T15:55:49;2.10;;;1.20;;
39176;SDS011;24904;52.208;21.192;2023-04-03T16:00:52;2.90;;;1.20;;
39176;SDS011;24904;52.208;21.192;2023-04-03T16:05:57;4.20;;;1.40;;
39176;SDS011;24904;52.208;21.192;2023-04-03T16:11:03;3.20;;;1.60;;
39176;SDS011;24904;52.208;21.192;2023-04-03T16:16:06;2.70;;;1.30;;
39176;SDS011;24904;52.208;21.192;2023-04-03T16:21:10;2.70;;;1.50;;
39176;SDS011;24904;52.208;21.192;2023-04-03T16:26:14;2.80;;;1.40;;
39176;SDS011;24904;52.208;21.192;2023-04-03T16:31:18;3.00;;;1.40;;
39176;SDS011;24904;52.208;21.192;2023-04-03T16:36:22;4.70;;;1.90;;
39176;SDS011;24904;52.208;21.192;2023-04-03T16:41:26;3.60;;;1.50;;
39176;SDS011;24904;52.208;21.192;2023-04-03T16:46:29;4.40;;;1.80;;
39176;SDS011;24904;52.208;21.192;2023-04-03T16:51:32;5.70;;;2.00;;
39176;SDS011;24904;52.208;21.192;2023-04-03T16:56:36;4.10;;;1.50;;
39176;SDS011;24904;52.208;21.192;2023-04-03T17:01:39;4.10;;;1.50;;
39176;SDS011;24904;52.208;21.192;2023-04-03T17:06:42;2.90;;;1.60;;
39176;SDS011;24904;52.208;21.192;2023-04-03T17:11:45;3.40;;;2.00;;
39176;SDS011;24904;52.208;21.192;2023-04-03T17:20:44;4.90;;;2.20;;
39176;SDS011;24904;52.208;21.192;2023-04-03T17:25:49;5.50;;;2.00;;
39176;SDS011;24904;52.208;21.192;2023-04-03T17:30:55;4.50;;;2.00;;
39176;SDS011;24904;52.208;21.192;2023-04-03T17:44:16;5.90;;;2.50;;
39176;SDS011;24904;52.208;21.192;2023-04-03T17:49:22;5.80;;;2.50;;
39176;SDS011;24904;52.208;21.192;2023-04-03T17:54:27;5.40;;;2.60;;
39176;SDS011;24904;52.208;21.192;2023-04-03T17:59:32;5.60;;;3.00;;
39176;SDS011;24904;52.208;21.192;2023-04-03T18:04:37;7.00;;;2.30;;
39176;SDS011;24904;52.208;21.192;2023-04-03T18:09:42;6.10;;;2.50;;
39176;SDS011;24904;52.208;21.192;2023-04-03T18:14:49;5.00;;;2.50;;
39176;SDS011;24904;52.208;21.192;2023-04-03T18:19:55;8.20;;;2.90;;
39176;SDS011;24904;52.208;21.192;2023-04-03T18:25:00;4.60;;;2.50;;
39176;SDS011;24904;52.208;21.192;2023-04-03T18:30:07;6.00;;;2.80;;
39176;SDS011;24904;52.208;21.192;2023-04-03T18:35:15;6.60;;;2.80;;
39176;SDS011;24904;52.208;21.192;2023-04-03T18:40:20;6.60;;;2.80;;
39176;SDS011;24904;52.208;21.192;2023-04-03T18:45:25;6.60;;;2.70;;
39176;SDS011;24904;52.208;21.192;2023-04-03T18:50:31;8.10;;;3.30;;
39176;SDS011;24904;52.208;21.192;2023-04-03T18:55:36;8.60;;;3.50;;
39176;SDS011;24904;52.208;21.192;2023-04-03T19:00:41;9.10;;;4.10;;
39176;SDS011;24904;52.208;21.192;2023-04-03T19:05:46;7.80;;;3.80;;
39176;SDS011;24904;52.208;21.192;2023-04-03T19:10:52;6.70;;;3.30;;
39176;SDS011;24904;52.208;21.192;2023-04-03T19:15:57;8.80;;;3.30;;
39176;SDS011;24904;52.208;21.192;2023-04-03T19:21:02;8.40;;;3.80;;
39176;SDS011;24904;52.208;21.192;2023-04-03T19:26:07;8.00;;;4.10;;
39176;SDS011;24904;52.208;21.192;2023-04-03T19:31:14;7.60;;;3.60;;
39176;SDS011;24904;52.208;21.192;2023-04-03T19:36:21;10.20;;;4.50;;
39176;SDS011;24904;52.208;21.192;2023-04-03T19:41:27;13.20;;;3.90;;
39176;SDS011;24904;52.208;21.192;2023-04-03T19:46:36;10.00;;;4.60;;
39176;SDS011;24904;52.208;21.192;2023-04-03T19:51:41;8.50;;;4.40;;
39176;SDS011;24904;52.208;21.192;2023-04-03T19:56:46;9.90;;;4.20;;
39176;SDS011;24904;52.208;21.192;2023-04-03T20:01:51;7.50;;;3.60;;
39176;SDS011;24904;52.208;21.192;2023-04-03T20:06:56;8.20;;;3.90;;
39176;SDS011;24904;52.208;21.192;2023-04-03T20:12:02;7.30;;;4.20;;
39176;SDS011;24904;52.208;21.192;2023-04-03T20:17:10;7.20;;;3.90;;
39176;SDS011;24904;52.208;21.192;2023-04-03T20:22:15;7.30;;;4.20;;
39176;SDS011;24904;52.208;21.192;2023-04-03T20:27:20;7.10;;;3.80;;
39176;SDS011;24904;52.208;21.192;2023-04-03T20:32:25;8.60;;;4.10;;
39176;SDS011;24904;52.208;21.192;2023-04-03T20:37:30;6.90;;;3.70;;
39176;SDS011;24904;52.208;21.192;2023-04-03T20:42:37;8.50;;;4.50;;
39176;SDS011;24904;52.208;21.192;2023-04-03T20:47:42;10.40;;;4.50;;
39176;SDS011;24904;52.208;21.192;2023-04-03T20:52:47;8.00;;;4.20;;
39176;SDS011;24904;52.208;21.192;2023-04-03T20:57:52;7.50;;;4.20;;
39176;SDS011;24904;52.208;21.192;2023-04-03T21:19:29;8.40;;;4.00;;
39176;SDS011;24904;52.208;21.192;2023-04-03T21:24:34;7.10;;;3.60;;
39176;SDS011;24904;52.208;21.192;2023-04-03T21:29:40;9.50;;;3.80;;
39176;SDS011;24904;52.208;21.192;2023-04-03T21:34:45;6.50;;;4.00;;
39176;SDS011;24904;52.208;21.192;2023-04-03T21:39:51;8.20;;;3.90;;
39176;SDS011;24904;52.208;21.192;2023-04-03T21:44:56;14.40;;;4.20;;
39176;SDS011;24904;52.208;21.192;2023-04-03T21:50:01;7.30;;;3.50;;
39176;SDS011;24904;52.208;21.192;2023-04-03T21:55:07;8.30;;;3.90;;
39176;SDS011;24904;52.208;21.192;2023-04-03T22:00:13;8.00;;;3.80;;
39176;SDS011;24904;52.208;21.192;2023-04-03T22:05:19;8.10;;;3.50;;
39176;SDS011;24904;52.208;21.192;2023-04-03T22:10:24;7.30;;;3.40;;
39176;SDS011;24904;52.208;21.192;2023-04-03T22:15:30;8.60;;;4.00;;
39176;SDS011;24904;52.208;21.192;2023-04-03T22:20:44;8.80;;;3.70;;
39176;SDS011;24904;52.208;21.192;2023-04-03T22:25:58;6.00;;;3.10;;
39176;SDS011;24904;52.208;21.192;2023-04-03T22:31:05;7.60;;;3.40;;
39176;SDS011;24904;52.208;21.192;2023-04-03T22:36:11;8.90;;;3.50;;
39176;SDS011;24904;52.208;21.192;2023-04-03T22:41:17;9.30;;;3.70;;
39176;SDS011;24904;52.208;21.192;2023-04-03T22:46:23;7.10;;;3.40;;
39176;SDS011;24904;52.208;21.192;2023-04-03T22:51:29;9.10;;;3.50;;
39176;SDS011;24904;52.208;21.192;2023-04-03T22:56:34;6.10;;;3.10;;
39176;SDS011;24904;52.208;21.192;2023-04-03T23:01:39;7.10;;;3.70;;
39176;SDS011;24904;52.208;21.192;2023-04-03T23:06:44;6.70;;;3.30;;
39176;SDS011;24904;52.208;21.192;2023-04-03T23:14:59;7.40;;;3.80;;
39176;SDS011;24904;52.208;21.192;2023-04-03T23:20:02;5.50;;;3.10;;
39176;SDS011;24904;52.208;21.192;2023-04-03T23:25:07;14.20;;;3.10;;
39176;SDS011;24904;52.208;21.192;2023-04-03T23:30:11;7.40;;;3.50;;
39176;SDS011;24904;52.208;21.192;2023-04-03T23:35:14;10.20;;;3.30;;
39176;SDS011;24904;52.208;21.192;2023-04-03T23:40:18;7.90;;;3.30;;
39176;SDS011;24904;52.208;21.192;2023-04-03T23:45:21;7.10;;;2.90;;
39176;SDS011;24904;52.208;21.192;2023-04-03T23:50:24;5.40;;;3.00;;
39176;SDS011;24904;52.208;21.192;2023-04-03T23:55:27;6.50;;;3.20;;
